Time;durP1;ratioP1;P1;durP2;ratioP2;P2;SDS_P1;SDS_P2;PMS_P1;PMS_P2;Temp;Humidity;BMP_temperature;BMP_pressure;BME280_temperature;BME280_humidity;BME280_pressure;Samples;Min_cycle;Max_cycle;Signal;HPM_P1;HPM_P2
2023/05/28 00:00:51;;;;;;;14.70;7.23;;;15.60;99.90;;;;;;5085761;28;20208;-62
2023/05/28 00:03:20;;;;;;;15.13;6.93;;;15.60;99.90;;;;;;5084332;28;20240;-62
2023/05/28 00:05:47;;;;;;;14.63;6.83;;;15.60;99.90;;;;;;5084527;28;20288;-62
2023/05/28 00:08:14;;;;;;;14.13;7.40;;;15.40;99.90;;;;;;5084210;28;20249;-62
2023/05/28 00:10:42;;;;;;;15.83;7.37;;;15.40;99.90;;;;;;5084111;28;20261;-62
2023/05/28 00:13:09;;;;;;;17.07;6.63;;;15.40;99.90;;;;;;5082946;28;20229;-63
2023/05/28 00:15:37;;;;;;;13.17;7.77;;;15.40;99.90;;;;;;5063507;28;20691;-60
2023/05/28 00:18:04;;;;;;;12.37;6.40;;;15.30;99.90;;;;;;5084625;28;20221;-60
2023/05/28 00:20:32;;;;;;;12.10;7.50;;;15.40;99.90;;;;;;5065464;28;20197;-60
2023/05/28 00:22:59;;;;;;;15.07;6.70;;;15.30;99.90;;;;;;5080375;28;20652;-62
2023/05/28 00:25:26;;;;;;;13.33;7.00;;;15.30;99.90;;;;;;5068898;28;20657;-62
2023/05/28 00:27:53;;;;;;;13.83;7.27;;;15.40;99.90;;;;;;5079487;28;20245;-62
2023/05/28 00:30:22;;;;;;;16.50;7.83;;;15.30;99.90;;;;;;5084578;28;20575;-60
2023/05/28 00:32:49;;;;;;;15.97;7.87;;;15.20;99.90;;;;;;5081982;28;20221;-60
2023/05/28 00:35:16;;;;;;;12.80;7.60;;;15.10;99.90;;;;;;5067145;28;20552;-61
2023/05/28 00:37:43;;;;;;;16.30;7.53;;;15.00;99.90;;;;;;5085422;28;20191;-62
2023/05/28 00:40:11;;;;;;;17.77;7.57;;;14.90;99.90;;;;;;5085055;28;20202;-62
2023/05/28 00:42:38;;;;;;;16.73;7.57;;;14.80;99.90;;;;;;5082068;28;20220;-62
2023/05/28 00:45:05;;;;;;;14.63;8.13;;;14.80;99.90;;;;;;5075998;28;20955;-63
2023/05/28 00:47:32;;;;;;;12.17;7.53;;;14.80;99.90;;;;;;5086364;28;20189;-62
2023/05/28 00:50:00;;;;;;;19.40;8.17;;;14.80;99.90;;;;;;5054024;28;20562;-62
2023/05/28 00:52:27;;;;;;;15.70;6.97;;;14.60;99.90;;;;;;5071581;28;20233;-63
2023/05/28 00:54:55;;;;;;;13.53;7.30;;;14.60;99.90;;;;;;5085985;28;20650;-62
2023/05/28 00:57:24;;;;;;;13.90;7.57;;;14.60;99.90;;;;;;5074156;28;22614;-62
2023/05/28 00:59:52;;;;;;;16.73;7.80;;;14.50;99.90;;;;;;5086584;28;20202;-62
2023/05/28 01:02:19;;;;;;;16.07;7.80;;;14.60;99.90;;;;;;5083206;28;20208;-62
2023/05/28 01:04:46;;;;;;;18.30;7.10;;;14.70;99.90;;;;;;5083616;28;20685;-62
2023/05/28 01:07:13;;;;;;;15.20;7.27;;;14.50;99.90;;;;;;5087603;28;20259;-62
2023/05/28 01:09:40;;;;;;;15.47;7.50;;;14.40;99.90;;;;;;5086618;28;20284;-63
2023/05/28 01:12:08;;;;;;;10.77;6.13;;;14.30;99.90;;;;;;5086532;28;20218;-62
2023/05/28 01:14:37;;;;;;;15.07;6.90;;;14.40;99.90;;;;;;5041110;28;20218;-62
2023/05/28 01:17:06;;;;;;;11.70;7.50;;;14.30;99.90;;;;;;5085196;28;20200;-62
2023/05/28 01:19:33;;;;;;;13.23;7.27;;;14.20;99.90;;;;;;5087266;28;20235;-62
2023/05/28 01:22:04;;;;;;;15.73;6.43;;;14.20;99.90;;;;;;5087805;28;20204;-62
2023/05/28 01:24:34;;;;;;;13.93;6.97;;;14.10;99.90;;;;;;5074898;28;20207;-62
2023/05/28 01:27:02;;;;;;;14.67;7.10;;;14.20;99.90;;;;;;5079284;28;20241;-62
2023/05/28 01:29:29;;;;;;;15.17;7.73;;;14.20;99.90;;;;;;5086767;28;20206;-62
2023/05/28 01:31:56;;;;;;;13.50;7.23;;;14.20;99.90;;;;;;5068388;28;21954;-63
2023/05/28 01:34:23;;;;;;;16.93;7.30;;;14.10;99.90;;;;;;5077123;28;20199;-62
2023/05/28 01:37:17;;;;;;;13.57;7.20;;;14.00;99.90;;;;;;5080919;28;22730;-62
2023/05/28 01:39:46;;;;;;;18.50;7.23;;;14.00;99.90;;;;;;5083982;28;20304;-62
2023/05/28 01:42:14;;;;;;;12.13;6.97;;;14.00;99.90;;;;;;5085795;28;20275;-61
2023/05/28 01:44:42;;;;;;;14.40;7.43;;;14.00;99.90;;;;;;5085957;28;20678;-65
2023/05/28 01:47:12;;;;;;;13.33;7.67;;;14.00;99.90;;;;;;5087533;28;20287;-61
2023/05/28 01:49:39;;;;;;;15.23;6.50;;;14.00;99.90;;;;;;5081515;28;20719;-61
2023/05/28 01:52:07;;;;;;;13.93;7.40;;;14.20;99.90;;;;;;5074924;28;20228;-61
2023/05/28 01:54:34;;;;;;;14.80;7.13;;;14.30;99.90;;;;;;5089351;28;20553;-61
2023/05/28 01:57:01;;;;;;;13.17;6.60;;;14.40;99.90;;;;;;5086271;28;20231;-61
2023/05/28 01:59:29;;;;;;;17.13;6.87;;;14.30;99.90;;;;;;5088400;28;20671;-61
2023/05/28 02:01:56;;;;;;;12.97;6.47;;;14.20;99.90;;;;;;5089621;28;20203;-61
2023/05/28 02:04:23;;;;;;;14.17;6.63;;;14.10;99.90;;;;;;5088382;28;20201;-61
2023/05/28 02:06:50;;;;;;;14.57;5.83;;;14.10;99.90;;;;;;5089096;28;20272;-64
2023/05/28 02:09:17;;;;;;;15.77;6.33;;;14.20;99.90;;;;;;5071352;28;20196;-61
2023/05/28 02:11:44;;;;;;;13.67;5.50;;;14.00;99.90;;;;;;5087353;28;20228;-61
2023/05/28 02:14:14;;;;;;;17.07;6.87;;;13.90;99.90;;;;;;5085731;28;20575;-60
2023/05/28 02:16:44;;;;;;;14.67;6.70;;;14.10;99.90;;;;;;5079160;28;20202;-60
2023/05/28 02:19:12;;;;;;;11.70;6.10;;;14.10;99.90;;;;;;5067476;28;20246;-60
2023/05/28 02:21:38;;;;;;;14.57;7.17;;;14.10;99.90;;;;;;5089529;28;20215;-61
2023/05/28 02:24:06;;;;;;;11.23;6.67;;;14.00;99.90;;;;;;5086832;28;20224;-60
2023/05/28 02:26:32;;;;;;;13.17;6.43;;;14.00;99.90;;;;;;5088061;28;20277;-60
2023/05/28 02:28:59;;;;;;;15.57;6.73;;;14.00;99.90;;;;;;5086265;28;20213;-60
2023/05/28 02:31:26;;;;;;;14.53;6.70;;;13.90;99.90;;;;;;5087337;28;20220;-61
2023/05/28 02:33:53;;;;;;;14.63;6.87;;;13.80;99.90;;;;;;5085046;28;20368;-62
2023/05/28 02:36:20;;;;;;;12.97;6.53;;;13.80;99.90;;;;;;5086774;28;20645;-60
2023/05/28 02:38:47;;;;;;;14.10;6.80;;;13.70;99.90;;;;;;5085387;28;20192;-60
2023/05/28 02:41:14;;;;;;;16.00;7.07;;;13.80;99.90;;;;;;5084290;28;20232;-60
2023/05/28 02:43:43;;;;;;;9.50;6.00;;;13.60;99.90;;;;;;5080703;28;20230;-62
2023/05/28 02:46:10;;;;;;;11.80;5.90;;;13.60;99.90;;;;;;5084579;28;20241;-62
2023/05/28 02:48:37;;;;;;;11.40;6.20;;;13.50;99.90;;;;;;5084796;28;20211;-63
2023/05/28 02:51:04;;;;;;;14.73;6.23;;;13.50;99.90;;;;;;5087924;28;20310;-60
2023/05/28 02:53:31;;;;;;;14.53;6.07;;;13.40;99.90;;;;;;5084257;28;20244;-62
2023/05/28 02:55:59;;;;;;;15.20;6.40;;;13.40;99.90;;;;;;5084555;28;20192;-60
2023/05/28 02:58:25;;;;;;;15.77;7.17;;;13.50;99.90;;;;;;5083113;28;20227;-60
2023/05/28 03:00:52;;;;;;;11.07;6.27;;;13.40;99.90;;;;;;5085302;28;20198;-60
2023/05/28 03:03:19;;;;;;;14.07;6.80;;;13.40;99.90;;;;;;5081977;28;20285;-60
2023/05/28 03:05:47;;;;;;;16.37;6.53;;;13.50;99.90;;;;;;5085769;28;20205;-60
2023/05/28 03:08:14;;;;;;;15.80;6.87;;;13.50;99.90;;;;;;5086481;28;20200;-60
2023/05/28 03:10:41;;;;;;;14.33;6.60;;;13.40;99.90;;;;;;5065404;28;20203;-60
2023/05/28 03:13:08;;;;;;;18.97;7.07;;;13.40;99.90;;;;;;5084755;28;20219;-60
2023/05/28 03:15:35;;;;;;;13.07;6.43;;;13.50;99.90;;;;;;5064285;28;20244;-60
2023/05/28 03:18:03;;;;;;;13.03;7.30;;;13.50;99.90;;;;;;5086346;28;20234;-60
2023/05/28 03:20:30;;;;;;;15.40;6.43;;;13.40;99.90;;;;;;5083914;28;20236;-60
2023/05/28 03:22:58;;;;;;;13.43;6.20;;;13.30;99.90;;;;;;5083742;28;20912;-60
2023/05/28 03:25:25;;;;;;;16.60;6.80;;;13.30;99.90;;;;;;5086437;28;20221;-60
2023/05/28 03:27:53;;;;;;;15.20;6.43;;;13.40;99.90;;;;;;5084863;28;20239;-60
2023/05/28 03:30:21;;;;;;;19.03;6.53;;;13.30;99.90;;;;;;5078621;28;20632;-60
2023/05/28 03:32:49;;;;;;;15.53;6.20;;;13.30;99.90;;;;;;5083656;28;20255;-63
2023/05/28 03:35:17;;;;;;;19.23;7.67;;;13.20;99.90;;;;;;5085257;28;20286;-60
2023/05/28 03:37:44;;;;;;;14.40;6.03;;;13.20;99.90;;;;;;5061786;28;20652;-60
2023/05/28 03:40:11;;;;;;;17.40;6.13;;;13.20;99.90;;;;;;5067226;28;20222;-61
2023/05/28 03:42:39;;;;;;;17.20;5.87;;;13.10;99.90;;;;;;5082703;28;20215;-61
2023/05/28 03:45:06;;;;;;;14.43;7.03;;;13.00;99.90;;;;;;5079176;28;20204;-61
2023/05/28 03:47:34;;;;;;;14.87;6.47;;;13.10;99.90;;;;;;5062290;28;20195;-60
2023/05/28 03:50:01;;;;;;;15.83;6.50;;;13.00;99.90;;;;;;5068010;28;20200;-60
2023/05/28 03:52:28;;;;;;;13.03;6.17;;;13.00;99.90;;;;;;5083513;28;20222;-60
2023/05/28 03:54:55;;;;;;;11.13;6.27;;;13.10;99.90;;;;;;5084016;28;20200;-60
2023/05/28 03:57:22;;;;;;;15.37;6.80;;;13.10;99.90;;;;;;5084320;28;20558;-60
2023/05/28 03:59:49;;;;;;;12.90;7.40;;;13.10;99.90;;;;;;5079655;28;20332;-60
2023/05/28 04:02:16;;;;;;;12.43;6.03;;;13.10;99.90;;;;;;5074700;28;20281;-61
2023/05/28 04:04:45;;;;;;;18.73;7.00;;;13.10;99.90;;;;;;5076397;28;20362;-60
2023/05/28 04:07:12;;;;;;;11.03;6.10;;;13.20;99.90;;;;;;5078792;28;20207;-60
2023/05/28 04:09:38;;;;;;;15.87;6.93;;;13.30;99.90;;;;;;5079336;28;20204;-60
2023/05/28 04:12:06;;;;;;;12.00;6.57;;;13.40;99.90;;;;;;5082080;28;20364;-60
2023/05/28 04:14:33;;;;;;;12.97;6.40;;;13.30;99.90;;;;;;5084869;28;20660;-60
2023/05/28 04:17:00;;;;;;;12.80;6.33;;;13.30;99.90;;;;;;5082602;28;20304;-60
2023/05/28 04:19:27;;;;;;;16.63;6.77;;;13.30;99.90;;;;;;5083685;28;21143;-60
2023/05/28 04:21:54;;;;;;;10.57;6.27;;;13.40;99.90;;;;;;5080324;28;20610;-61
2023/05/28 04:24:21;;;;;;;15.00;6.87;;;13.40;99.90;;;;;;5059546;28;20208;-60
2023/05/28 04:26:48;;;;;;;13.17;6.43;;;13.30;99.90;;;;;;5082514;28;20275;-60
2023/05/28 04:29:15;;;;;;;12.43;6.33;;;13.20;99.90;;;;;;5079766;28;20226;-60
2023/05/28 04:31:43;;;;;;;13.80;6.77;;;13.20;99.90;;;;;;5083675;28;20219;-60
2023/05/28 04:34:11;;;;;;;15.10;6.43;;;13.20;99.90;;;;;;5079786;28;20248;-60
2023/05/28 04:36:38;;;;;;;14.70;7.00;;;13.20;99.90;;;;;;5083506;28;20204;-60
2023/05/28 04:39:05;;;;;;;13.37;6.30;;;13.10;99.90;;;;;;5087634;28;20213;-60
2023/05/28 04:41:32;;;;;;;16.00;6.27;;;13.20;99.90;;;;;;5088322;28;20284;-60
2023/05/28 04:43:59;;;;;;;14.80;5.97;;;13.20;99.90;;;;;;5083140;28;20211;-61
2023/05/28 04:46:29;;;;;;;13.33;6.77;;;13.20;99.90;;;;;;5082402;28;20208;-60
2023/05/28 04:48:57;;;;;;;15.77;6.60;;;13.20;99.90;;;;;;5082854;28;20261;-60
2023/05/28 04:51:24;;;;;;;14.70;6.23;;;13.20;99.90;;;;;;5085367;28;20239;-60
2023/05/28 04:53:51;;;;;;;16.20;7.00;;;13.20;99.90;;;;;;5065172;28;20214;-60
2023/05/28 04:56:19;;;;;;;14.57;6.33;;;13.30;99.90;;;;;;5081521;28;20199;-61
2023/05/28 04:58:46;;;;;;;14.77;7.70;;;13.30;99.90;;;;;;5083849;28;20203;-60
2023/05/28 05:01:14;;;;;;;10.77;6.70;;;13.30;99.90;;;;;;5080338;28;20729;-62
2023/05/28 05:03:41;;;;;;;14.57;6.87;;;13.30;99.90;;;;;;5059772;28;20760;-60
2023/05/28 05:06:08;;;;;;;12.77;6.47;;;13.20;99.90;;;;;;5082961;28;20631;-60
2023/05/28 05:08:35;;;;;;;10.33;6.30;;;13.40;99.90;;;;;;5082413;28;20210;-60
2023/05/28 05:11:04;;;;;;;14.27;6.47;;;13.40;99.90;;;;;;5082469;28;20641;-65
2023/05/28 05:13:31;;;;;;;12.40;6.43;;;13.50;99.90;;;;;;5063606;28;20668;-61
2023/05/28 05:15:58;;;;;;;16.50;7.13;;;13.60;99.90;;;;;;5066177;28;21092;-60
2023/05/28 05:18:25;;;;;;;16.47;7.23;;;13.60;99.90;;;;;;5081219;28;20202;-60
2023/05/28 05:20:52;;;;;;;14.70;7.33;;;13.50;99.90;;;;;;5080966;28;20662;-60
2023/05/28 05:23:19;;;;;;;13.13;8.07;;;13.60;99.90;;;;;;5059607;28;20200;-60
2023/05/28 05:25:46;;;;;;;18.93;7.37;;;13.80;99.90;;;;;;5075918;28;20204;-60
2023/05/28 05:28:13;;;;;;;11.73;6.93;;;13.90;99.90;;;;;;5061822;28;20231;-62
2023/05/28 05:30:40;;;;;;;14.13;6.23;;;14.00;99.90;;;;;;5086950;28;20197;-60
2023/05/28 05:33:07;;;;;;;13.00;6.40;;;14.00;99.90;;;;;;5081398;28;20963;-60
2023/05/28 05:35:34;;;;;;;11.17;6.20;;;14.10;1.00;;;;;;5061037;28;20192;-60
2023/05/28 05:38:01;;;;;;;11.17;7.33;;;14.40;99.90;;;;;;5083289;28;20201;-60
2023/05/28 05:40:28;;;;;;;13.20;6.57;;;14.50;1.00;;;;;;5082547;28;20203;-60
2023/05/28 05:42:55;;;;;;;10.43;5.80;;;14.50;1.00;;;;;;5084527;28;21845;-60
2023/05/28 05:45:22;;;;;;;11.40;6.83;;;14.60;1.00;;;;;;5087143;28;21641;-60
2023/05/28 05:47:48;;;;;;;15.53;6.23;;;14.70;99.90;;;;;;5086218;28;20319;-60
2023/05/28 05:50:15;;;;;;;12.40;5.87;;;14.70;1.00;;;;;;5070317;28;20198;-60
2023/05/28 05:52:42;;;;;;;18.10;6.80;;;14.80;1.00;;;;;;5086115;28;20325;-61
2023/05/28 05:55:09;;;;;;;14.83;6.43;;;14.80;1.00;;;;;;5062823;28;20204;-61
2023/05/28 05:57:36;;;;;;;16.00;6.90;;;14.80;1.00;;;;;;5083892;28;20612;-61
2023/05/28 06:00:05;;;;;;;18.77;6.50;;;14.70;1.00;;;;;;5078013;28;20215;-60
2023/05/28 06:02:33;;;;;;;11.90;6.73;;;14.70;1.00;;;;;;5051058;28;20204;-60
2023/05/28 06:05:00;;;;;;;13.67;6.63;;;14.70;1.00;;;;;;5078669;28;20208;-60
2023/05/28 06:07:27;;;;;;;14.17;6.50;;;14.60;30.00;;;;;;5059125;28;20290;-60
2023/05/28 06:09:53;;;;;;;13.57;6.63;;;14.60;99.90;;;;;;5082542;28;20212;-60
2023/05/28 06:12:21;;;;;;;12.50;6.60;;;14.50;99.90;;;;;;5079976;28;20219;-61
2023/05/28 06:14:49;;;;;;;14.30;6.83;;;14.50;41.20;;;;;;5084650;28;20240;-61
2023/05/28 06:17:16;;;;;;;13.37;6.23;;;14.60;1.00;;;;;;5086903;28;20199;-60
2023/05/28 06:19:43;;;;;;;14.30;6.53;;;14.60;1.00;;;;;;5085307;28;20205;-61
2023/05/28 06:22:10;;;;;;;15.00;7.33;;;14.70;1.00;;;;;;5064459;28;20212;-60
2023/05/28 06:24:39;;;;;;;13.60;6.57;;;14.60;1.00;;;;;;5080338;28;20212;-60
2023/05/28 06:27:06;;;;;;;14.00;6.63;;;14.70;1.00;;;;;;5062536;28;20272;-60
2023/05/28 06:29:33;;;;;;;15.23;6.70;;;14.60;1.00;;;;;;5062810;28;20204;-60
2023/05/28 06:32:00;;;;;;;14.50;7.27;;;14.60;1.00;;;;;;5061553;28;20215;-60
2023/05/28 06:34:27;;;;;;;15.47;6.50;;;14.70;1.00;;;;;;5078154;28;20469;-60
2023/05/28 06:36:54;;;;;;;16.20;7.47;;;14.90;1.00;;;;;;5078319;28;20253;-61
2023/05/28 06:39:21;;;;;;;15.13;6.97;;;15.00;1.00;;;;;;5083178;28;20232;-60
2023/05/28 06:41:48;;;;;;;9.73;6.53;;;15.10;1.00;;;;;;5075157;28;20207;-61
2023/05/28 06:44:15;;;;;;;13.53;6.47;;;14.90;1.00;;;;;;5080769;28;20194;-60
2023/05/28 06:46:42;;;;;;;16.07;6.73;;;14.90;1.00;;;;;;5064625;28;20221;-60
2023/05/28 06:49:09;;;;;;;15.37;6.87;;;14.90;1.00;;;;;;5082385;28;20227;-60
2023/05/28 06:51:37;;;;;;;16.27;6.67;;;14.80;1.00;;;;;;5059420;28;20188;-61
2023/05/28 06:54:04;;;;;;;16.40;7.17;;;15.00;1.00;;;;;;5076621;28;20315;-60
2023/05/28 06:56:31;;;;;;;14.07;7.07;;;14.90;1.00;;;;;;5081153;28;20264;-60
2023/05/28 06:58:58;;;;;;;14.10;6.30;;;15.00;1.00;;;;;;5080678;28;20215;-61
2023/05/28 07:01:25;;;;;;;13.40;6.97;;;15.30;99.90;;;;;;5081719;28;20193;-60
2023/05/28 07:03:52;;;;;;;14.37;6.63;;;15.50;99.90;;;;;;5065414;28;20225;-61
2023/05/28 07:06:19;;;;;;;15.10;7.03;;;15.70;1.00;;;;;;5079806;28;20306;-60
2023/05/28 07:08:46;;;;;;;13.27;6.90;;;15.70;99.90;;;;;;5079800;28;20659;-61
2023/05/28 07:11:13;;;;;;;17.17;7.20;;;15.70;1.00;;;;;;5078650;28;20207;-61
2023/05/28 07:13:40;;;;;;;12.67;7.23;;;15.50;80.10;;;;;;5062220;28;20252;-61
2023/05/28 07:16:07;;;;;;;15.43;6.83;;;15.80;14.50;;;;;;5065623;28;20242;-61
2023/05/28 07:18:34;;;;;;;15.37;7.00;;;16.10;1.00;;;;;;5061949;28;20716;-61
2023/05/28 07:21:02;;;;;;;15.97;7.57;;;16.40;1.00;;;;;;5059301;28;20209;-60
2023/05/28 07:23:29;;;;;;;12.03;6.47;;;16.80;1.00;;;;;;5076307;28;20224;-61
2023/05/28 07:25:56;;;;;;;12.53;7.03;;;16.90;1.00;;;;;;5077487;28;20221;-61
2023/05/28 07:28:23;;;;;;;12.17;6.03;;;17.30;1.00;;;;;;5080207;28;20206;-63
2023/05/28 07:30:51;;;;;;;15.70;6.70;;;17.70;1.00;;;;;;5063986;28;20202;-62
2023/05/28 07:33:17;;;;;;;14.97;6.87;;;17.90;99.90;;;;;;5046822;28;20229;-61
2023/05/28 07:35:44;;;;;;;12.17;6.97;;;17.40;99.90;;;;;;5080398;28;20211;-61
2023/05/28 07:38:14;;;;;;;13.43;6.10;;;17.30;1.00;;;;;;5069974;28;20195;-61
2023/05/28 07:40:41;;;;;;;12.27;6.17;;;17.60;99.90;;;;;;5081558;28;20648;-61
2023/05/28 07:43:09;;;;;;;10.23;6.43;;;18.00;99.90;;;;;;5064921;28;20219;-61
2023/05/28 07:45:36;;;;;;;14.77;6.73;;;18.10;99.90;;;;;;5087310;28;20199;-61
2023/05/28 07:48:03;;;;;;;14.77;6.37;;;18.00;99.90;;;;;;5068944;28;20202;-61
2023/05/28 07:50:30;;;;;;;13.33;6.47;;;18.20;99.90;;;;;;5086875;28;20743;-61
2023/05/28 07:52:57;;;;;;;9.10;6.07;;;18.00;99.90;;;;;;5068923;28;20219;-61
2023/05/28 07:55:24;;;;;;;11.70;7.27;;;18.40;99.90;;;;;;5080546;28;20653;-61
2023/05/28 07:57:51;;;;;;;13.83;7.13;;;18.30;99.90;;;;;;5059338;28;20201;-61
2023/05/28 08:00:18;;;;;;;13.57;7.80;;;18.30;99.90;;;;;;5057206;28;20209;-62
2023/05/28 08:02:45;;;;;;;11.70;6.40;;;18.90;99.90;;;;;;5082327;28;20834;-61
2023/05/28 08:05:16;;;;;;;9.73;6.20;;;19.40;99.90;;;;;;5075839;28;20230;-61
2023/05/28 08:07:43;;;;;;;13.83;6.73;;;19.60;1.00;;;;;;5077504;28;20640;-61
2023/05/28 08:10:10;;;;;;;13.03;7.40;;;19.60;1.00;;;;;;4698056;28;9999662;-61
2023/05/28 08:12:37;;;;;;;14.57;6.20;;;19.30;75.40;;;;;;5058403;28;20534;-61
2023/05/28 08:15:05;;;;;;;12.03;6.00;;;19.80;1.00;;;;;;5068941;28;20229;-62
2023/05/28 08:17:32;;;;;;;15.93;6.30;;;20.00;1.00;;;;;;5075347;28;20255;-62
2023/05/28 08:19:59;;;;;;;9.40;6.10;;;20.00;1.00;;;;;;5067439;28;20209;-61
2023/05/28 08:22:29;;;;;;;16.40;6.23;;;19.90;1.00;;;;;;5075137;28;20285;-62
2023/05/28 08:24:56;;;;;;;11.47;6.40;;;20.10;1.00;;;;;;5063215;28;20202;-61
2023/05/28 08:27:23;;;;;;;12.93;6.10;;;19.80;1.00;;;;;;5071949;28;20228;-61
2023/05/28 08:29:50;;;;;;;12.23;5.83;;;20.30;1.00;;;;;;5080599;28;20606;-61
2023/05/28 08:32:17;;;;;;;9.03;6.07;;;20.60;1.00;;;;;;5068793;28;20571;-61
2023/05/28 08:34:44;;;;;;;13.00;5.80;;;20.90;1.00;;;;;;5048820;28;20705;-61
2023/05/28 08:37:13;;;;;;;10.33;5.20;;;21.20;1.00;;;;;;5073043;28;20224;-63
2023/05/28 08:39:40;;;;;;;11.63;5.40;;;21.40;1.00;;;;;;5067044;28;20198;-62
2023/05/28 08:42:07;;;;;;;8.87;5.43;;;21.40;1.00;;;;;;5055598;28;20192;-61
2023/05/28 08:44:35;;;;;;;11.50;4.83;;;21.30;1.00;;;;;;5034570;28;20205;-64
2023/05/28 08:47:02;;;;;;;8.53;5.17;;;21.40;1.00;;;;;;5043606;28;20212;-61
2023/05/28 08:49:41;;;;;;;12.17;4.83;;;20.90;1.00;;;;;;5075671;28;20217;-61
2023/05/28 08:52:10;;;;;;;9.83;5.40;;;21.10;1.00;;;;;;5069781;28;21401;-61
2023/05/28 08:54:38;;;;;;;7.90;4.37;;;21.20;1.00;;;;;;5052045;28;20771;-62
2023/05/28 08:57:05;;;;;;;9.70;4.37;;;21.30;1.00;;;;;;5073261;28;20203;-61
2023/05/28 08:59:32;;;;;;;8.53;4.37;;;21.10;1.00;;;;;;5074719;28;20210;-62
2023/05/28 09:01:59;;;;;;;9.10;4.30;;;21.10;1.00;;;;;;5077804;28;20202;-62
2023/05/28 09:04:26;;;;;;;8.83;3.67;;;21.50;1.00;;;;;;5058165;28;20206;-61
2023/05/28 09:06:56;;;;;;;8.17;4.53;;;21.40;1.00;;;;;;5078973;28;20343;-61
2023/05/28 09:09:23;;;;;;;6.50;3.40;;;21.60;1.00;;;;;;5074628;28;20205;-62
2023/05/28 09:11:50;;;;;;;6.50;3.80;;;21.50;1.00;;;;;;5081148;28;20199;-61
2023/05/28 09:14:19;;;;;;;5.97;3.73;;;21.30;1.00;;;;;;5077244;28;20907;-61
2023/05/28 09:16:46;;;;;;;8.73;3.90;;;21.60;1.00;;;;;;5079005;28;20246;-61
2023/05/28 09:19:17;;;;;;;7.47;4.00;;;21.70;1.00;;;;;;5058587;28;20202;-61
2023/05/28 09:21:57;;;;;;;8.50;3.53;;;21.80;1.00;;;;;;5084797;28;20289;-61
2023/05/28 09:24:27;;;;;;;7.90;4.17;;;21.90;1.00;;;;;;5072711;28;20219;-61
2023/05/28 09:26:55;;;;;;;7.97;4.03;;;21.40;1.00;;;;;;5050399;28;20953;-61
2023/05/28 09:29:26;;;;;;;12.00;4.67;;;21.10;1.00;;;;;;5069192;28;20628;-61
2023/05/28 09:31:57;;;;;;;6.80;3.70;;;20.90;1.00;;;;;;5073157;28;20622;-61
2023/05/28 09:34:28;;;;;;;7.77;4.13;;;21.40;1.00;;;;;;5074812;28;20929;-61
2023/05/28 09:37:03;;;;;;;8.17;3.97;;;21.00;1.00;;;;;;5071876;28;20196;-61
2023/05/28 09:39:31;;;;;;;7.10;4.07;;;21.10;1.00;;;;;;5075748;28;20194;-61
2023/05/28 09:42:03;;;;;;;7.53;4.43;;;21.30;1.00;;;;;;5071431;28;20289;-61
2023/05/28 09:44:31;;;;;;;10.03;4.00;;;21.30;1.00;;;;;;5070306;28;20535;-61
2023/05/28 09:46:58;;;;;;;7.87;4.37;;;21.20;1.00;;;;;;5074000;28;20217;-61
2023/05/28 09:49:32;;;;;;;7.63;3.93;;;20.90;1.00;;;;;;5071189;28;20844;-61
2023/05/28 09:52:02;;;;;;;12.57;4.27;;;20.80;1.00;;;;;;5068143;28;20213;-61
2023/05/28 09:54:31;;;;;;;7.83;3.80;;;20.90;1.00;;;;;;5063609;28;20222;-62
2023/05/28 09:57:02;;;;;;;7.90;3.73;;;21.20;1.00;;;;;;5066860;28;20230;-61
2023/05/28 09:59:32;;;;;;;10.10;3.70;;;21.40;1.00;;;;;;5071807;28;20225;-61
2023/05/28 10:02:00;;;;;;;6.03;3.83;;;21.50;1.00;;;;;;5071940;28;20713;-61
2023/05/28 10:04:34;;;;;;;7.63;3.47;;;21.30;1.00;;;;;;5070679;28;20633;-61
2023/05/28 10:07:05;;;;;;;7.10;3.70;;;21.20;1.00;;;;;;5071990;28;20210;-61
2023/05/28 10:09:33;;;;;;;7.37;3.47;;;21.00;1.00;;;;;;5067385;28;20214;-61
2023/05/28 10:12:14;;;;;;;10.60;4.33;;;21.00;1.00;;;;;;5066705;28;20207;-60
2023/05/28 10:14:42;;;;;;;9.63;4.13;;;21.10;1.00;;;;;;5070170;28;20572;-61
2023/05/28 10:17:10;;;;;;;8.23;3.37;;;21.30;1.00;;;;;;5064545;28;20661;-61
2023/05/28 10:19:38;;;;;;;8.07;3.77;;;21.60;1.00;;;;;;5057689;28;20209;-61
2023/05/28 10:22:06;;;;;;;8.40;4.53;;;21.90;1.00;;;;;;5052800;28;20777;-60
2023/05/28 10:24:34;;;;;;;9.17;4.70;;;21.70;1.00;;;;;;5071172;28;20208;-60
2023/05/28 10:27:06;;;;;;;7.87;4.27;;;21.30;1.00;;;;;;5069391;28;20332;-61
2023/05/28 10:29:44;;;;;;;7.97;3.70;;;21.70;1.00;;;;;;5064948;28;20684;-61
2023/05/28 10:32:17;;;;;;;8.77;3.60;;;21.80;1.00;;;;;;5067518;28;20203;-61
2023/05/28 10:34:44;;;;;;;8.20;3.67;;;22.10;1.00;;;;;;5066537;28;20562;-61
2023/05/28 10:37:13;;;;;;;8.27;3.77;;;22.00;1.00;;;;;;5050704;28;20208;-60
2023/05/28 10:39:47;;;;;;;7.90;3.87;;;22.00;1.00;;;;;;5048379;28;20239;-60
2023/05/28 10:42:20;;;;;;;7.57;2.80;;;22.20;1.00;;;;;;5067586;28;20221;-61
2023/05/28 10:45:07;;;;;;;8.83;3.67;;;22.30;1.00;;;;;;5047193;28;20212;-61
2023/05/28 10:47:39;;;;;;;5.60;3.00;;;22.60;1.00;;;;;;5052270;28;21959;-60
2023/05/28 10:50:10;;;;;;;8.07;4.15;;;22.20;1.00;;;;;;5068266;28;20402;-59
2023/05/28 10:53:02;;;;;;;9.23;3.53;;;22.30;1.00;;;;;;5066267;28;20971;-60
2023/05/28 10:55:45;;;;;;;10.57;3.23;;;22.90;1.00;;;;;;5062886;28;20669;-62
2023/05/28 10:58:13;;;;;;;8.73;3.20;;;23.20;99.90;;;;;;5065200;28;20241;-60
2023/05/28 11:00:40;;;;;;;8.70;3.00;;;23.00;99.90;;;;;;5057097;28;20651;-60
2023/05/28 11:03:07;;;;;;;4.43;2.73;;;23.30;99.90;;;;;;5056842;28;20203;-60
2023/05/28 11:05:35;;;;;;;11.27;3.40;;;23.70;99.90;;;;;;5044856;28;20214;-60
2023/05/28 11:08:03;;;;;;;9.13;3.47;;;23.50;99.90;;;;;;5058242;28;20213;-61
2023/05/28 11:10:30;;;;;;;8.00;4.57;;;23.30;99.90;;;;;;5059231;28;20210;-61
2023/05/28 11:12:58;;;;;;;7.43;3.80;;;23.30;99.90;;;;;;5060462;28;20210;-61
2023/05/28 11:15:25;;;;;;;6.00;3.27;;;23.40;99.90;;;;;;5067933;28;20210;-61
2023/05/28 11:17:52;;;;;;;5.93;2.77;;;23.60;99.90;;;;;;5076691;28;20650;-60
2023/05/28 11:20:22;;;;;;;7.73;3.47;;;24.00;99.90;;;;;;5070610;28;20202;-60
2023/05/28 11:22:49;;;;;;;8.07;3.63;;;24.20;99.90;;;;;;5064641;28;20259;-61
2023/05/28 11:25:15;;;;;;;6.23;3.40;;;24.50;99.90;;;;;;5066876;28;20313;-61
2023/05/28 11:27:45;;;;;;;5.67;3.03;;;24.10;99.90;;;;;;5070411;28;20700;-61
2023/05/28 11:30:14;;;;;;;7.13;2.93;;;23.80;99.90;;;;;;5066289;28;20207;-60
2023/05/28 11:32:42;;;;;;;7.23;3.13;;;24.10;99.90;;;;;;5077750;28;20239;-62
2023/05/28 11:35:14;;;;;;;6.30;2.57;;;24.60;99.90;;;;;;5056215;28;20212;-60
2023/05/28 11:37:42;;;;;;;8.40;2.53;;;24.90;99.90;;;;;;5074840;28;20306;-60
2023/05/28 11:40:11;;;;;;;6.80;2.83;;;25.00;99.90;;;;;;5072550;28;20212;-61
2023/05/28 11:42:40;;;;;;;7.50;3.13;;;25.10;99.90;;;;;;5070569;28;21164;-60
2023/05/28 11:45:08;;;;;;;5.70;3.50;;;25.00;99.90;;;;;;5053177;28;21808;-60
2023/05/28 11:47:36;;;;;;;8.77;3.43;;;25.00;99.90;;;;;;5065880;28;20210;-60
2023/05/28 11:50:12;;;;;;;7.87;2.60;;;24.50;99.90;;;;;;5068949;28;20739;-60
2023/05/28 11:52:39;;;;;;;5.97;2.97;;;24.70;99.90;;;;;;5073578;28;20577;-60
2023/05/28 11:55:07;;;;;;;7.23;3.07;;;24.50;99.90;;;;;;5069478;28;20218;-60
2023/05/28 11:57:37;;;;;;;9.60;3.53;;;24.60;99.90;;;;;;5068552;28;20207;-60
2023/05/28 12:00:11;;;;;;;6.17;3.57;;;25.10;99.90;;;;;;5066542;28;20198;-60
2023/05/28 12:02:46;;;;;;;6.07;3.20;;;25.30;99.90;;;;;;5071063;28;20208;-60
2023/05/28 12:05:15;;;;;;;7.57;3.33;;;24.90;99.90;;;;;;5070183;28;20665;-60
2023/05/28 12:07:45;;;;;;;10.67;3.90;;;25.70;99.90;;;;;;5063537;28;20217;-60
2023/05/28 12:10:14;;;;;;;8.07;3.50;;;25.70;99.90;;;;;;5068237;28;20299;-60
2023/05/28 12:12:49;;;;;;;5.70;2.90;;;24.70;99.90;;;;;;5047994;28;20202;-62
2023/05/28 12:15:18;;;;;;;8.33;3.37;;;25.70;99.90;;;;;;5068609;28;20217;-59
2023/05/28 12:17:48;;;;;;;7.20;3.00;;;25.30;99.90;;;;;;5071881;28;21117;-60
2023/05/28 12:20:17;;;;;;;7.40;3.67;;;24.90;99.90;;;;;;5072069;28;20195;-59
2023/05/28 12:22:44;;;;;;;4.97;2.60;;;25.50;99.90;;;;;;5075476;28;20955;-60
2023/05/28 12:25:13;;;;;;;8.83;2.87;;;25.50;99.90;;;;;;5080598;28;20238;-60
2023/05/28 12:27:40;;;;;;;5.37;3.30;;;25.00;99.90;;;;;;5076315;28;20503;-60
2023/05/28 12:30:07;;;;;;;6.43;2.80;;;25.00;99.90;;;;;;5058736;28;20215;-60
2023/05/28 12:32:36;;;;;;;6.13;3.00;;;24.90;99.90;;;;;;5065922;28;20287;-60
2023/05/28 12:35:04;;;;;;;6.30;2.80;;;24.80;99.90;;;;;;5056521;28;20222;-59
2023/05/28 12:37:31;;;;;;;5.37;2.83;;;25.30;99.90;;;;;;5069431;28;20233;-59
2023/05/28 12:39:58;;;;;;;6.07;2.83;;;24.70;99.90;;;;;;5075643;28;20215;-60
2023/05/28 12:42:24;;;;;;;4.87;3.03;;;25.50;99.90;;;;;;5070007;28;20197;-59
2023/05/28 12:44:51;;;;;;;5.40;3.20;;;25.40;99.90;;;;;;5072495;28;20248;-59
2023/05/28 12:47:18;;;;;;;8.00;3.87;;;26.10;99.90;;;;;;5060694;28;20221;-59